Time;durP1;ratioP1;P1;durP2;ratioP2;P2;SDS_P1;SDS_P2;PMS_P1;PMS_P2;Temp;Humidity;BMP_temperature;BMP_pressure;BME280_temperature;BME280_humidity;BME280_pressure;Samples;Min_cycle;Max_cycle;Signal;HPM_P1;HPM_P2
2021/08/28 00:00:45;;;;;;;;;3.25;2.50;;;;;15.24;65.65;101234.91;5074643;28;45312;-61
2021/08/28 00:03:11;;;;;;;;;7.50;7.00;;;;;15.28;65.09;101245.28;5075028;28;45350;-62
2021/08/28 00:05:36;;;;;;;;;5.00;3.25;;;;;15.17;65.50;101237.84;5074314;28;45406;-62
2021/08/28 00:08:01;;;;;;;;;4.50;2.50;;;;;15.19;66.40;101249.25;5074268;28;45393;-62
2021/08/28 00:10:27;;;;;;;;;3.00;2.00;;;;;15.17;66.03;101244.97;5073021;28;45358;-62
2021/08/28 00:12:52;;;;;;;;;5.00;4.50;;;;;15.12;66.44;101236.38;5073330;27;45450;-61
2021/08/28 00:15:18;;;;;;;;;5.00;3.00;;;;;15.11;66.64;101238.16;5074498;27;46170;-62
2021/08/28 00:17:44;;;;;;;;;6.25;2.50;;;;;15.06;67.15;101237.53;5074378;28;45220;-62
2021/08/28 00:20:11;;;;;;;;;5.00;3.25;;;;;15.05;67.12;101235.81;5074553;28;45367;-63
2021/08/28 00:22:37;;;;;;;;;5.00;3.00;;;;;14.99;67.65;101234.34;5056382;28;45600;-62
2021/08/28 00:25:04;;;;;;;;;4.00;2.00;;;;;14.98;67.44;101242.34;5074127;28;46511;-62
2021/08/28 00:27:30;;;;;;;;;4.00;2.00;;;;;14.95;67.96;101234.53;5077546;28;45358;-62
2021/08/28 00:29:55;;;;;;;;;3.00;3.00;;;;;14.90;67.45;101221.53;5077916;27;45363;-63
2021/08/28 00:32:21;;;;;;;;;2.00;1.00;;;;;14.90;67.93;101232.13;5078980;27;45504;-63
2021/08/28 00:34:46;;;;;;;;;5.75;3.50;;;;;14.88;68.35;101231.34;5077887;27;45379;-63
2021/08/28 00:37:11;;;;;;;;;5.00;4.00;;;;;14.87;68.42;101246.38;5078135;28;45372;-62
2021/08/28 00:39:37;;;;;;;;;4.75;4.25;;;;;14.83;68.87;101242.16;5077979;28;45479;-63
2021/08/28 00:42:02;;;;;;;;;2.00;2.00;;;;;14.81;68.74;101237.84;5078161;27;45558;-60
2021/08/28 00:44:28;;;;;;;;;4.00;3.00;;;;;14.76;69.26;101238.06;5077621;27;46517;-62
2021/08/28 00:46:54;;;;;;;;;3.75;2.00;;;;;14.75;69.23;101245.13;5077629;27;45316;-60
2021/08/28 00:49:20;;;;;;;;;9.00;5.50;;;;;14.73;68.83;101241.72;5078197;27;45173;-62
2021/08/28 00:51:46;;;;;;;;;3.00;3.00;;;;;14.71;69.32;101246.22;5077698;28;45331;-62
2021/08/28 00:54:11;;;;;;;;;3.50;2.50;;;;;14.69;69.06;101241.91;5077425;28;45374;-62
2021/08/28 00:56:38;;;;;;;;;5.75;4.00;;;;;14.66;69.30;101242.91;5059042;28;45288;-62
2021/08/28 00:59:03;;;;;;;;;3.75;3.00;;;;;14.64;68.91;101238.63;5077349;28;45335;-62
2021/08/28 01:01:36;;;;;;;;;3.75;3.75;;;;;14.61;69.26;101234.31;5077536;27;45255;-61
2021/08/28 01:04:02;;;;;;;;;5.00;3.00;;;;;14.60;69.42;101241.41;5042560;28;47120;-62
2021/08/28 01:06:48;;;;;;;;;3.00;3.00;;;;;14.58;69.91;101242.41;5058579;28;45431;-62
2021/08/28 01:09:33;;;;;;;;;4.75;3.00;;;;;14.54;69.74;101244.34;5077334;28;45299;-62
2021/08/28 01:12:17;;;;;;;;;4.75;3.25;;;;;14.51;70.08;101240.97;5077297;28;45509;-63
2021/08/28 01:14:46;;;;;;;;;3.00;3.00;;;;;14.47;70.05;101237.63;5075226;28;46226;-61
2021/08/28 01:17:14;;;;;;;;;2.50;2.50;;;;;14.44;70.34;101241.25;5076770;28;45335;-61
2021/08/28 01:19:39;;;;;;;;;3.50;2.75;;;;;14.44;70.76;101248.34;5075637;28;45480;-60
2021/08/28 01:22:11;;;;;;;;;4.00;2.75;;;;;14.40;70.63;101241.47;5077116;27;45292;-62
2021/08/28 01:24:40;;;;;;;;;5.50;3.00;;;;;14.39;70.84;101243.25;5058829;28;45666;-61
2021/08/28 01:27:17;;;;;;;;;4.25;3.50;;;;;14.36;71.11;101240.75;5058368;28;45995;-62
2021/08/28 01:29:43;;;;;;;;;8.25;3.75;;;;;14.34;71.61;101234.66;5077154;28;45288;-62
2021/08/28 01:32:10;;;;;;;;;2.25;1.00;;;;;14.30;71.64;101233.94;5077164;27;45494;-62
2021/08/28 01:34:37;;;;;;;;;4.25;2.50;;;;;14.30;71.72;101238.38;5058375;27;45426;-62
2021/08/28 01:37:04;;;;;;;;;9.25;4.00;;;;;14.27;71.42;101234.06;5075827;28;45283;-62
2021/08/28 01:39:32;;;;;;;;;6.50;3.50;;;;;14.26;71.56;101234.16;5076492;28;45375;-62
2021/08/28 01:42:01;;;;;;;;;5.00;3.50;;;;;14.21;72.25;101221.13;5076945;27;45405;-63
2021/08/28 01:44:27;;;;;;;;;5.25;4.00;;;;;14.22;72.23;101230.78;5057874;28;47450;-62
2021/08/28 01:46:53;;;;;;;;;5.75;5.75;;;;;14.22;71.82;101230.78;5076670;27;45290;-62
2021/08/28 01:49:21;;;;;;;;;3.75;3.50;;;;;14.24;71.72;101228.06;5076770;27;45252;-63
2021/08/28 01:51:48;;;;;;;;;4.00;3.75;;;;;14.22;72.18;101222.00;5076660;28;45566;-63
2021/08/28 01:54:13;;;;;;;;;9.75;5.75;;;;;14.21;72.28;101223.75;5076342;27;46328;-62
2021/08/28 01:56:38;;;;;;;;;7.75;5.00;;;;;14.21;72.33;101222.91;5076311;28;45341;-62
2021/08/28 01:59:04;;;;;;;;;7.00;3.00;;;;;14.17;71.94;101225.72;5058247;28;45423;-62
2021/08/28 02:01:30;;;;;;;;;5.25;4.25;;;;;14.20;71.98;101237.91;5076844;28;45291;-63
2021/08/28 02:03:56;;;;;;;;;5.00;3.50;;;;;14.19;72.37;101224.78;5076376;27;45388;-62
2021/08/28 02:06:36;;;;;;;;;5.75;4.75;;;;;14.19;72.13;101230.91;5076644;28;45280;-62
2021/08/28 02:09:26;;;;;;;;;3.75;2.50;;;;;14.18;72.42;101231.84;5076266;27;45437;-61
2021/08/28 02:12:02;;;;;;;;;3.50;3.50;;;;;14.18;72.57;101231.84;5076501;27;45441;-62
2021/08/28 02:14:38;;;;;;;;;5.50;4.00;;;;;14.14;72.77;101225.84;5076149;27;45453;-61
2021/08/28 02:17:07;;;;;;;;;2.50;2.50;;;;;14.12;72.60;101227.69;5076017;27;45281;-62
2021/08/28 02:19:37;;;;;;;;;4.50;3.25;;;;;14.13;72.84;101247.06;5076074;27;45453;-63
2021/08/28 02:22:28;;;;;;;;;4.00;2.50;;;;;14.11;72.55;101247.16;5076500;28;45358;-61
2021/08/28 02:24:58;;;;;;;;;4.00;4.00;;;;;14.07;72.87;101239.41;5076219;28;46290;-63
2021/08/28 02:27:29;;;;;;;;;7.00;2.75;;;;;14.06;73.34;101245.63;5076119;28;45333;-62
2021/08/28 02:29:59;;;;;;;;;3.25;2.50;;;;;14.01;73.38;101245.84;5076362;27;45327;-62
2021/08/28 02:32:27;;;;;;;;;4.00;2.50;;;;;14.00;73.45;101244.13;5076352;28;45343;-62
2021/08/28 02:34:55;;;;;;;;;8.75;3.75;;;;;13.96;73.97;101239.91;5075878;27;45771;-62
2021/08/28 02:37:23;;;;;;;;;4.00;3.00;;;;;13.94;73.65;101242.59;5057823;28;45480;-62
2021/08/28 02:39:49;;;;;;;;;4.75;4.25;;;;;13.93;73.99;101240.03;5074174;28;45267;-62
2021/08/28 02:42:15;;;;;;;;;2.50;2.50;;;;;13.91;74.17;101241.88;5076140;28;45525;-61
2021/08/28 02:44:43;;;;;;;;;7.00;4.25;;;;;13.87;74.16;101242.00;5075699;27;45411;-62
2021/08/28 02:47:10;;;;;;;;;7.50;3.50;;;;;13.88;73.85;101241.09;5075765;28;45310;-62
2021/08/28 02:49:38;;;;;;;;;2.75;2.75;;;;;13.88;73.99;101249.03;5075621;28;45463;-63
2021/08/28 02:52:06;;;;;;;;;4.25;4.00;;;;;13.87;74.06;101244.66;5076180;28;45260;-64
2021/08/28 02:54:34;;;;;;;;;4.50;3.00;;;;;13.88;74.27;101241.09;5074087;28;47172;-60
2021/08/28 02:57:00;;;;;;;;;3.75;3.75;;;;;13.87;74.29;101238.50;5073751;28;45362;-61
2021/08/28 02:59:27;;;;;;;;;4.75;3.25;;;;;13.84;74.32;101230.69;5075632;27;45422;-62
2021/08/28 03:01:54;;;;;;;;;3.75;3.75;;;;;13.83;74.22;101229.84;5075554;27;45478;-62
2021/08/28 03:04:22;;;;;;;;;4.00;4.00;;;;;13.84;74.83;101236.84;5075516;28;45303;-62
2021/08/28 03:06:49;;;;;;;;;3.25;3.25;;;;;13.84;74.80;101228.06;5075318;28;45424;-62
2021/08/28 03:09:18;;;;;;;;;3.25;3.25;;;;;13.82;74.25;101224.63;5057302;28;45531;-63
2021/08/28 03:11:44;;;;;;;;;6.00;3.50;;;;;13.83;74.86;101224.56;5075384;27;45515;-61
2021/08/28 03:14:11;;;;;;;;;7.75;4.50;;;;;13.84;74.52;101226.28;5075169;28;46540;-61
2021/08/28 03:16:41;;;;;;;;;6.50;4.25;;;;;13.84;74.80;101226.28;5074909;27;45345;-61
2021/08/28 03:19:09;;;;;;;;;5.00;3.75;;;;;13.80;74.67;101224.69;5075353;28;45384;-61
2021/08/28 03:21:37;;;;;;;;;3.00;3.00;;;;;13.81;74.93;101229.06;5075346;28;45664;-62
2021/08/28 03:24:03;;;;;;;;;5.25;3.50;;;;;13.82;74.97;101232.53;5075048;28;46319;-61
2021/08/28 03:26:30;;;;;;;;;3.25;2.00;;;;;13.79;75.26;101222.97;5075274;28;45422;-63
2021/08/28 03:28:57;;;;;;;;;6.25;3.25;;;;;13.79;75.05;101228.28;5075381;28;45694;-62
2021/08/28 03:31:24;;;;;;;;;3.00;3.00;;;;;13.78;75.12;101228.31;5075257;27;45261;-62
2021/08/28 03:33:53;;;;;;;;;5.25;4.25;;;;;13.76;75.54;101233.66;5075011;28;46397;-61
2021/08/28 03:36:19;;;;;;;;;4.25;4.00;;;;;13.79;75.54;101227.38;5074990;27;45391;-62
2021/08/28 03:38:46;;;;;;;;;6.25;5.00;;;;;13.73;75.39;101228.50;5074961;27;45374;-61
2021/08/28 03:41:12;;;;;;;;;5.25;4.75;;;;;13.73;75.28;101231.16;5075068;28;45657;-62
2021/08/28 03:43:37;;;;;;;;;6.50;3.75;;;;;13.73;75.78;101234.66;5074729;28;46240;-62
2021/08/28 03:46:04;;;;;;;;;3.00;3.00;;;;;13.71;75.63;101238.28;5074634;28;45229;-62
2021/08/28 03:48:30;;;;;;;;;5.00;4.00;;;;;13.73;75.69;101228.50;5075410;27;45278;-61
2021/08/28 03:50:58;;;;;;;;;4.75;4.25;;;;;13.73;75.78;101228.50;5074823;28;45563;-62
2021/08/28 03:53:23;;;;;;;;;4.75;4.25;;;;;13.67;76.07;101218.19;5074713;28;45577;-61
2021/08/28 03:55:49;;;;;;;;;5.00;2.50;;;;;13.68;75.95;101217.28;5074572;28;45437;-62
2021/08/28 03:58:14;;;;;;;;;8.25;5.00;;;;;13.68;75.95;101227.84;5074930;28;45276;-62
2021/08/28 04:00:40;;;;;;;;;6.00;4.50;;;;;13.70;76.01;101218.06;5057493;28;45449;-62
2021/08/28 04:03:05;;;;;;;;;5.25;4.50;;;;;13.67;76.00;101218.19;5078178;27;45477;-63
2021/08/28 04:05:31;;;;;;;;;7.00;4.25;;;;;13.63;76.27;101213.97;5060373;28;45409;-62
2021/08/28 04:07:56;;;;;;;;;6.75;5.00;;;;;13.65;76.25;101218.28;5078115;27;46155;-61
2021/08/28 04:10:21;;;;;;;;;3.50;2.50;;;;;13.62;76.26;101220.19;5078402;28;45284;-61
2021/08/28 04:12:47;;;;;;;;;7.50;3.00;;;;;13.64;76.61;101221.84;5077942;27;46279;-61
2021/08/28 04:15:13;;;;;;;;;8.00;4.75;;;;;13.62;76.50;101217.53;5078189;27;45250;-61
2021/08/28 04:17:38;;;;;;;;;7.00;4.25;;;;;13.59;76.92;101210.59;5059900;28;45267;-62
2021/08/28 04:20:05;;;;;;;;;8.75;3.75;;;;;13.63;76.96;101222.78;5078373;27;45347;-61
2021/08/28 04:22:31;;;;;;;;;6.25;4.00;;;;;13.65;77.39;101227.97;5059898;28;45421;-64
2021/08/28 04:24:56;;;;;;;;;6.00;4.25;;;;;13.59;76.95;101224.66;5078068;27;45421;-62
2021/08/28 04:27:22;;;;;;;;;5.00;3.75;;;;;13.64;77.10;101229.78;5078135;27;45390;-62
2021/08/28 04:29:47;;;;;;;;;3.50;3.25;;;;;13.63;77.20;101227.19;5078184;28;45583;-62
2021/08/28 04:32:12;;;;;;;;;10.50;7.50;;;;;13.63;76.97;101229.81;5077896;27;46474;-61
2021/08/28 04:34:38;;;;;;;;;9.50;6.00;;;;;13.66;77.09;101229.69;5077995;27;45399;-61
2021/08/28 04:37:03;;;;;;;;;3.00;3.00;;;;;13.65;77.06;101228.84;5078074;27;45361;-62
2021/08/28 04:39:29;;;;;;;;;9.50;4.75;;;;;13.64;77.50;101231.53;5078277;28;45548;-62
2021/08/28 04:41:54;;;;;;;;;6.50;3.25;;;;;13.68;77.30;101231.38;5077606;27;45469;-62
2021/08/28 04:44:19;;;;;;;;;5.50;4.75;;;;;13.69;77.40;101232.22;5077508;27;45322;-61
2021/08/28 04:46:45;;;;;;;;;6.00;4.50;;;;;13.71;77.26;101230.34;5077720;28;45331;-62
2021/08/28 04:49:11;;;;;;;;;6.25;3.25;;;;;13.71;77.63;101227.72;5077858;28;45320;-62
2021/08/28 04:51:37;;;;;;;;;3.50;2.50;;;;;13.72;77.79;101234.72;5059105;28;47151;-61
2021/08/28 04:54:03;;;;;;;;;4.50;3.00;;;;;13.75;77.56;101226.66;5059224;28;45478;-62
2021/08/28 04:56:28;;;;;;;;;2.50;2.50;;;;;13.76;77.40;101233.66;5077403;27;45292;-60
2021/08/28 04:58:53;;;;;;;;;9.75;4.50;;;;;13.73;77.55;101225.84;5077480;27;45303;-61
2021/08/28 05:01:19;;;;;;;;;5.75;3.25;;;;;13.79;77.50;101228.28;5077113;27;45405;-64
2021/08/28 05:03:44;;;;;;;;;9.50;2.50;;;;;13.91;77.83;101242.72;5077325;27;45266;-61
2021/08/28 05:06:10;;;;;;;;;6.50;5.25;;;;;14.00;77.36;101247.59;5077182;27;45292;-60
2021/08/28 05:08:35;;;;;;;;;11.50;4.00;;;;;14.06;76.88;101242.97;5077529;27;45324;-61
2021/08/28 05:11:02;;;;;;;;;7.25;3.50;;;;;14.13;76.89;101245.28;5077231;27;46233;-61
2021/08/28 05:13:28;;;;;;;;;6.00;3.75;;;;;14.22;76.56;101251.09;5077005;28;45419;-62
2021/08/28 05:15:54;;;;;;;;;5.25;4.25;;;;;14.27;76.52;101244.66;5077013;28;45340;-61
2021/08/28 05:18:19;;;;;;;;;6.75;5.00;;;;;14.33;76.22;101240.88;5077319;28;45469;-62
2021/08/28 05:20:44;;;;;;;;;5.50;4.00;;;;;14.38;75.93;101244.19;5076681;27;46682;-62
2021/08/28 05:23:10;;;;;;;;;6.00;5.50;;;;;14.39;75.71;101243.25;5076899;28;45366;-63
2021/08/28 05:25:35;;;;;;;;;6.75;4.50;;;;;14.45;75.61;101250.06;5077514;27;45502;-63
2021/08/28 05:28:00;;;;;;;;;4.00;3.25;;;;;14.49;75.44;101245.47;5059002;27;45520;-62
2021/08/28 05:30:26;;;;;;;;;7.25;5.00;;;;;14.52;75.32;101246.19;5076706;28;46625;-62
2021/08/28 05:32:51;;;;;;;;;3.75;3.75;;;;;14.54;75.03;101246.13;5058663;28;45377;-62
2021/08/28 05:35:16;;;;;;;;;3.25;3.25;;;;;14.53;75.03;101242.63;5058897;28;45373;-61
2021/08/28 05:37:42;;;;;;;;;5.50;4.00;;;;;14.55;74.84;101239.91;5077033;28;45402;-62
2021/08/28 05:40:08;;;;;;;;;8.25;5.00;;;;;14.60;75.04;101243.19;5076508;28;45551;-61
2021/08/28 05:42:35;;;;;;;;;8.25;4.00;;;;;14.64;74.78;101242.09;5076810;28;45306;-62
2021/08/28 05:45:00;;;;;;;;;5.25;3.75;;;;;14.72;74.60;101244.44;5076647;27;45411;-61
2021/08/28 05:47:25;;;;;;;;;6.00;4.75;;;;;14.78;74.37;101251.22;5076704;27;45596;-61
2021/08/28 05:49:51;;;;;;;;;4.75;2.25;;;;;14.83;73.95;101251.88;5076826;27;46232;-61
2021/08/28 05:52:16;;;;;;;;;7.50;5.00;;;;;14.86;73.88;101252.59;5076910;27;45293;-63
2021/08/28 05:54:42;;;;;;;;;5.00;4.00;;;;;14.92;73.70;101243.50;5076802;28;45361;-61
2021/08/28 05:57:07;;;;;;;;;9.25;6.00;;;;;14.95;73.80;101246.00;5077192;28;46211;-63
2021/08/28 05:59:33;;;;;;;;;4.50;2.75;;;;;14.95;73.76;101250.44;5076347;28;45555;-62
2021/08/28 06:01:58;;;;;;;;;6.00;2.75;;;;;15.02;74.10;101255.38;5076488;28;45913;-62
2021/08/28 06:04:23;;;;;;;;;5.25;4.00;;;;;15.04;73.79;101260.59;5076398;27;45496;-63
2021/08/28 06:06:49;;;;;;;;;9.00;6.00;;;;;15.01;74.15;101247.50;5076380;28;45657;-62
2021/08/28 06:09:14;;;;;;;;;5.25;4.00;;;;;15.03;73.76;101249.16;5074757;28;47587;-63
2021/08/28 06:11:39;;;;;;;;;4.00;3.00;;;;;15.07;73.99;101244.53;5076043;28;45446;-62
2021/08/28 06:14:05;;;;;;;;;6.00;4.25;;;;;15.16;73.94;101254.69;5076567;28;45442;-62
2021/08/28 06:16:30;;;;;;;;;4.00;4.00;;;;;15.24;73.76;101256.09;5076623;27;45500;-62
2021/08/28 06:18:58;;;;;;;;;5.25;4.75;;;;;15.27;73.86;101251.53;5057934;28;46277;-63
2021/08/28 06:21:24;;;;;;;;;5.00;3.00;;;;;15.39;73.53;101262.44;5076270;28;45340;-63
2021/08/28 06:23:50;;;;;;;;;6.50;4.00;;;;;15.45;73.52;101260.38;5075621;27;45366;-64
2021/08/28 06:26:16;;;;;;;;;7.00;4.00;;;;;15.57;73.34;101261.53;5076239;28;45670;-63
2021/08/28 06:28:41;;;;;;;;;6.00;4.00;;;;;15.67;72.83;101264.59;5075896;27;46250;-61
2021/08/28 06:31:06;;;;;;;;;6.00;4.75;;;;;15.69;72.82;101261.84;5057907;28;45295;-62
2021/08/28 06:33:32;;;;;;;;;6.00;3.25;;;;;15.75;72.72;101264.19;5075728;28;45701;-64
2021/08/28 06:35:57;;;;;;;;;6.00;3.25;;;;;15.75;72.41;101264.19;5074423;27;45259;-61
2021/08/28 06:38:23;;;;;;;;;6.75;4.50;;;;;15.78;72.39;101264.03;5075611;27;46519;-63
2021/08/28 06:40:48;;;;;;;;;5.50;5.00;;;;;15.81;72.36;101260.38;5075566;27;45346;-63
2021/08/28 06:43:13;;;;;;;;;7.00;5.00;;;;;15.90;72.04;101262.56;5075813;28;45403;-61
2021/08/28 06:45:39;;;;;;;;;5.75;4.25;;;;;15.91;71.96;101262.50;5057812;28;45552;-62
2021/08/28 06:48:07;;;;;;;;;7.00;4.50;;;;;15.97;71.53;101266.63;5075563;28;45366;-61
2021/08/28 06:50:33;;;;;;;;;10.25;5.00;;;;;16.03;71.59;101268.13;5075559;28;45407;-61
2021/08/28 06:52:58;;;;;;;;;7.50;6.00;;;;;16.08;71.71;101271.38;5075494;28;45319;-62
2021/08/28 06:55:24;;;;;;;;;7.00;5.50;;;;;16.15;71.65;101277.22;5075690;27;45272;-61
2021/08/28 06:57:49;;;;;;;;;9.00;7.00;;;;;16.19;71.28;101273.44;5057096;28;48036;-62
2021/08/28 07:00:14;;;;;;;;;9.50;6.50;;;;;16.24;71.28;101279.38;5075284;28;45523;-62
2021/08/28 07:02:41;;;;;;;;;4.50;4.50;;;;;16.27;71.13;101278.38;5075643;28;45414;-61
2021/08/28 07:05:07;;;;;;;;;10.50;6.00;;;;;16.32;70.95;101276.31;5076371;28;45517;-62
2021/08/28 07:07:32;;;;;;;;;6.00;6.00;;;;;16.43;71.08;101283.69;5075751;28;45952;-63
2021/08/28 07:09:57;;;;;;;;;6.00;5.00;;;;;16.49;70.42;101278.94;5075348;27;45537;-63
2021/08/28 07:12:23;;;;;;;;;8.00;4.25;;;;;16.54;70.44;101280.47;5075771;27;45457;-62
2021/08/28 07:14:48;;;;;;;;;4.00;4.00;;;;;16.58;70.04;101279.38;5075571;27;45656;-61
2021/08/28 07:17:14;;;;;;;;;6.50;5.50;;;;;16.64;70.24;101279.91;5075011;27;45365;-62
2021/08/28 07:19:39;;;;;;;;;8.25;5.25;;;;;16.82;69.92;101281.63;5075659;27;45497;-60
2021/08/28 07:22:04;;;;;;;;;6.00;5.50;;;;;17.03;69.28;101276.94;5075309;27;45371;-62
2021/08/28 07:24:30;;;;;;;;;6.00;4.00;;;;;17.13;68.84;101261.34;5057077;27;45592;-62
2021/08/28 07:26:55;;;;;;;;;6.50;5.00;;;;;17.35;68.22;101275.09;5075261;27;45607;-62
2021/08/28 07:29:21;;;;;;;;;6.00;5.25;;;;;17.48;68.06;101277.91;5075227;28;45410;-61
2021/08/28 07:31:46;;;;;;;;;6.50;5.50;;;;;17.62;67.60;101273.59;5056838;28;45481;-60
2021/08/28 07:34:12;;;;;;;;;6.75;5.75;;;;;17.73;67.71;101283.59;5075550;27;45535;-61
2021/08/28 07:36:37;;;;;;;;;6.50;5.25;;;;;17.85;66.82;101282.00;5073878;28;45841;-62
2021/08/28 07:39:03;;;;;;;;;11.75;5.50;;;;;17.88;66.71;101269.34;5074834;28;45445;-62
2021/08/28 07:41:31;;;;;;;;;4.00;4.00;;;;;18.02;66.17;101286.31;5074590;27;45430;-61
2021/08/28 07:43:56;;;;;;;;;6.00;6.00;;;;;18.12;65.84;101289.31;5056581;28;45360;-62
2021/08/28 07:46:21;;;;;;;;;9.75;6.25;;;;;18.23;65.88;101279.72;5074723;28;45470;-62
2021/08/28 07:48:47;;;;;;;;;7.25;5.00;;;;;18.48;65.81;101278.19;5074731;28;45363;-63
2021/08/28 07:51:12;;;;;;;;;4.00;4.00;;;;;18.69;64.22;101281.31;5075149;28;45237;-63
2021/08/28 07:53:37;;;;;;;;;7.00;6.25;;;;;18.78;64.61;101273.69;5074865;27;45350;-62
2021/08/28 07:56:03;;;;;;;;;5.50;4.75;;;;;19.00;63.14;101277.66;5056157;28;47431;-62
2021/08/28 07:58:28;;;;;;;;;4.75;4.75;;;;;19.19;63.51;101274.66;5074382;28;45508;-61
2021/08/28 08:00:54;;;;;;;;;10.25;6.25;;;;;19.42;62.26;101268.66;5056516;28;45406;-62
2021/08/28 08:03:19;;;;;;;;;2.50;2.50;;;;;19.53;62.29;101280.41;5074601;27;45518;-62
2021/08/28 08:05:44;;;;;;;;;4.50;3.50;;;;;19.60;61.88;101275.50;5055991;28;48373;-62
2021/08/28 08:08:10;;;;;;;;;6.00;6.00;;;;;19.64;61.46;101269.03;5056326;28;45370;-62
2021/08/28 08:10:35;;;;;;;;;4.75;3.75;;;;;19.60;61.66;101280.84;5074384;27;45383;-61
2021/08/28 08:13:01;;;;;;;;;6.25;5.00;;;;;19.59;60.96;101282.69;5056097;28;45440;-61
2021/08/28 08:15:27;;;;;;;;;6.25;4.00;;;;;19.50;61.93;101284.13;5074142;28;45364;-62
2021/08/28 08:17:53;;;;;;;;;6.25;4.50;;;;;19.32;61.33;101288.03;5074320;28;45393;-62
2021/08/28 08:20:19;;;;;;;;;6.75;5.00;;;;;19.15;62.46;101297.16;5038412;28;45426;-62
2021/08/28 08:22:44;;;;;;;;;6.00;6.00;;;;;19.05;65.21;101299.56;5052904;28;45506;-63
2021/08/28 08:25:10;;;;;;;;;11.50;9.00;;;;;18.78;67.63;101290.53;5053260;28;46130;-63
2021/08/28 08:27:36;;;;;;;;;8.25;8.00;;;;;18.65;70.09;101284.25;5052366;28;45382;-61
2021/08/28 08:30:03;;;;;;;;;10.75;10.75;;;;;18.62;70.75;101279.13;5052234;28;45312;-62
2021/08/28 08:32:28;;;;;;;;;20.25;18.50;;;;;18.70;69.37;101282.16;5052556;28;45347;-61
2021/08/28 08:34:53;;;;;;;;;14.25;9.75;;;;;18.82;70.27;101275.22;5053411;28;46304;-62
2021/08/28 08:37:19;;;;;;;;;8.00;8.00;;;;;19.02;69.25;101281.94;5053385;28;45335;-62
2021/08/28 08:39:44;;;;;;;;;7.75;7.25;;;;;19.32;68.00;101280.03;5053917;28;45446;-61
2021/08/28 08:42:11;;;;;;;;;9.75;9.25;;;;;19.56;67.03;101282.88;5053820;28;45354;-62
2021/08/28 08:44:39;;;;;;;;;17.25;11.50;;;;;19.74;66.73;101290.59;5053365;28;46279;-62
2021/08/28 08:47:06;;;;;;;;;7.00;6.25;;;;;19.85;65.28;101293.38;5052667;28;45304;-62
2021/08/28 08:49:32;;;;;;;;;11.50;7.00;;;;;19.95;65.42;101291.81;5056085;28;45521;-61
2021/08/28 08:51:59;;;;;;;;;8.00;7.00;;;;;19.99;64.31;101292.50;5056285;28;45658;-62
2021/08/28 08:54:25;;;;;;;;;12.25;8.25;;;;;19.90;64.14;101293.97;5055468;28;46539;-62
2021/08/28 08:56:53;;;;;;;;;32.25;29.00;;;;;19.94;64.46;101290.13;5039033;28;45428;-61
2021/08/28 08:59:18;;;;;;;;;16.00;14.00;;;;;19.96;64.12;101285.53;5057072;28;45351;-61
2021/08/28 09:01:44;;;;;;;;;5.25;5.25;;;;;20.00;63.45;101294.19;5039365;28;45239;-61
2021/08/28 09:04:11;;;;;;;;;11.00;7.75;;;;;20.05;62.85;101299.19;5057031;28;45953;-62
2021/08/28 09:06:38;;;;;;;;;8.75;6.00;;;;;20.00;62.49;101305.72;5056785;28;46301;-61
2021/08/28 09:09:03;;;;;;;;;10.25;8.00;;;;;19.93;62.36;101306.25;5038596;28;45396;-62
2021/08/28 09:11:33;;;;;;;;;13.00;9.25;;;;;19.90;62.81;101295.78;5056904;28;45332;-63
2021/08/28 09:14:16;;;;;;;;;10.00;7.50;;;;;20.04;62.51;101293.03;5056676;28;46226;-62
2021/08/28 09:16:42;;;;;;;;;7.50;6.50;;;;;20.25;61.34;101300.50;5056644;28;45331;-63
2021/08/28 09:19:07;;;;;;;;;13.50;9.50;;;;;20.37;61.55;101304.97;5056745;28;45731;-62
2021/08/28 09:21:34;;;;;;;;;9.50;6.50;;;;;20.58;60.82;101302.63;5038730;28;45394;-62
2021/08/28 09:24:06;;;;;;;;;9.50;7.50;;;;;20.70;61.03;101302.69;5056621;28;45306;-61
2021/08/28 09:26:39;;;;;;;;;9.25;5.50;;;;;20.69;59.46;101299.19;5056207;28;45434;-62
2021/08/28 09:29:08;;;;;;;;;7.50;5.75;;;;;20.71;59.22;101310.63;5039205;28;45434;-63
2021/08/28 09:31:40;;;;;;;;;6.00;4.00;;;;;20.81;59.36;101313.50;5055461;28;45471;-62
2021/08/28 09:34:25;;;;;;;;;8.75;4.25;;;;;21.00;59.13;101301.47;5054948;28;47131;-60
2021/08/28 09:36:53;;;;;;;;;5.75;5.75;;;;;21.13;57.10;101309.47;5056361;28;45392;-61
2021/08/28 09:39:19;;;;;;;;;7.75;5.75;;;;;21.25;57.93;101313.06;5056430;28;45430;-62
2021/08/28 09:41:44;;;;;;;;;6.00;5.00;;;;;21.40;57.53;101311.91;5056771;28;45621;-61
2021/08/28 09:44:10;;;;;;;;;6.25;6.00;;;;;21.59;57.29;101310.53;5056317;28;46596;-62
2021/08/28 09:46:38;;;;;;;;;9.25;6.75;;;;;21.69;56.18;101308.03;5056239;28;45263;-61
2021/08/28 09:49:04;;;;;;;;;6.75;6.75;;;;;21.79;56.10;101302.84;5056540;28;45979;-62
2021/08/28 09:51:48;;;;;;;;;7.00;7.00;;;;;21.85;55.45;101310.41;5038079;28;45594;-62
2021/08/28 09:54:13;;;;;;;;;8.25;5.75;;;;;21.81;55.73;101307.13;5055969;28;46536;-61
2021/08/28 09:56:41;;;;;;;;;8.00;6.25;;;;;21.84;56.05;101303.34;5054362;28;45470;-61
2021/08/28 09:59:17;;;;;;;;;6.00;5.00;;;;;22.01;55.15;101302.03;5053618;28;45372;-62
2021/08/28 10:01:46;;;;;;;;;6.00;5.75;;;;;22.19;54.41;101302.41;5055762;28;45467;-62
2021/08/28 10:04:11;;;;;;;;;8.25;5.00;;;;;22.25;54.98;101293.06;5054268;28;47244;-62
2021/08/28 10:06:45;;;;;;;;;7.75;6.25;;;;;22.25;54.28;101291.22;5055420;28;45457;-61
2021/08/28 10:09:12;;;;;;;;;5.00;3.00;;;;;22.24;53.55;101296.72;5055750;28;45236;-62
2021/08/28 10:11:38;;;;;;;;;6.00;4.50;;;;;22.25;53.64;101291.22;5055482;28;45211;-61
2021/08/28 10:14:03;;;;;;;;;5.50;5.00;;;;;22.41;53.04;101290.88;5055399;28;46117;-62
2021/08/28 10:16:30;;;;;;;;;7.50;6.75;;;;;22.59;52.95;101288.59;5055256;28;45537;-61
2021/08/28 10:18:56;;;;;;;;;7.00;7.00;;;;;22.82;52.20;101274.31;5055800;28;45409;-62
2021/08/28 10:21:21;;;;;;;;;5.75;5.25;;;;;23.02;51.43;101281.56;5055371;28;45466;-63
2021/08/28 10:23:52;;;;;;;;;7.00;3.00;;;;;23.13;50.71;101279.81;5055478;28;46258;-61
2021/08/28 10:26:18;;;;;;;;;3.50;3.50;;;;;23.09;51.15;101287.25;5038255;28;45198;-61
2021/08/28 10:28:44;;;;;;;;;3.75;3.75;;;;;23.07;50.99;101280.34;5055244;28;45339;-61
2021/08/28 10:31:11;;;;;;;;;9.50;7.00;;;;;23.10;51.35;101285.44;5053927;28;45651;-62
2021/08/28 10:33:38;;;;;;;;;8.25;6.00;;;;;23.18;50.98;101291.03;5055075;28;45530;-61
2021/08/28 10:36:08;;;;;;;;;8.00;5.25;;;;;23.25;50.25;101289.56;5054855;28;45414;-62
2021/08/28 10:38:36;;;;;;;;;4.75;3.00;;;;;23.19;49.96;101287.38;5053812;28;45337;-62
2021/08/28 10:41:02;;;;;;;;;3.00;3.00;;;;;23.00;48.18;101296.94;5055308;28;45343;-62
2021/08/28 10:43:29;;;;;;;;;3.50;3.25;;;;;22.88;49.71;101290.72;5054992;28;45322;-61
2021/08/28 10:45:55;;;;;;;;;7.00;5.25;;;;;22.91;49.95;101287.81;5054793;28;45371;-64
2021/08/28 10:48:20;;;;;;;;;9.00;5.00;;;;;22.94;48.99;101284.03;5055317;28;45292;-60
2021/08/28 10:50:53;;;;;;;;;5.00;5.00;;;;;22.94;49.49;101280.47;5055247;28;45542;-62
2021/08/28 10:53:18;;;;;;;;;7.25;4.75;;;;;22.97;49.73;101282.91;5055665;28;46371;-62
2021/08/28 10:55:47;;;;;;;;;8.00;6.25;;;;;23.02;49.58;101276.19;5054915;28;45365;-61
2021/08/28 10:58:18;;;;;;;;;6.00;5.00;;;;;23.06;48.81;101282.16;5054909;28;45249;-60
2021/08/28 11:00:47;;;;;;;;;1.00;1.00;;;;;23.06;47.73;101279.47;5054693;28;45394;-62
2021/08/28 11:03:22;;;;;;;;;6.00;6.00;;;;;23.08;48.63;101279.34;5054271;28;46491;-62
2021/08/28 11:06:13;;;;;;;;;6.00;6.00;;;;;23.02;47.68;101276.19;5054424;28;45300;-61
2021/08/28 11:08:49;;;;;;;;;4.00;4.00;;;;;23.07;47.92;101283.84;5054506;28;45286;-61
2021/08/28 11:11:36;;;;;;;;;6.00;3.25;;;;;23.37;48.25;101282.34;5054525;28;45564;-62
2021/08/28 11:14:07;;;;;;;;;4.00;2.25;;;;;23.52;47.82;101279.34;5054498;28;46104;-60
2021/08/28 11:16:41;;;;;;;;;4.00;4.00;;;;;23.69;47.32;101280.56;5052930;28;45434;-61
2021/08/28 11:19:11;;;;;;;;;5.25;5.25;;;;;23.88;45.93;101269.97;5054283;28;45387;-61
2021/08/28 11:21:42;;;;;;;;;5.00;3.75;;;;;23.90;46.57;101280.59;5054569;28;45643;-61
2021/08/28 11:24:22;;;;;;;;;3.00;3.00;;;;;24.02;46.85;101271.50;5054331;28;45709;-62